Time;durP1;ratioP1;P1;durP2;ratioP2;P2;SDS_P1;SDS_P2;PMS_P1;PMS_P2;Temp;Humidity;BMP_temperature;BMP_pressure;BME280_temperature;BME280_humidity;BME280_pressure;Samples;Min_cycle;Max_cycle;Signal;HPM_P1;HPM_P2
2021/03/31 00:01:59;;;;;;;11.33;6.13;;;;;;;;;;5053176;28;20230;-61
2021/03/31 00:04:25;;;;;;;9.53;5.17;;;;;;;;;;5053419;28;20349;-61
2021/03/31 00:06:52;;;;;;;9.87;4.77;;;;;;;;;;5053527;28;20236;-61
2021/03/31 00:09:18;;;;;;;11.63;5.17;;;;;;;;;;5053147;28;20206;-61
2021/03/31 00:11:46;;;;;;;10.63;5.03;;;;;;;;;;5053377;28;20225;-61
2021/03/31 00:14:14;;;;;;;9.07;4.70;;;;;;;;;;5053450;28;20635;-61
2021/03/31 00:16:40;;;;;;;6.33;4.10;;;;;;;;;;5053200;28;20217;-59
2021/03/31 00:19:07;;;;;;;9.03;4.47;;;;;;;;;;5053295;28;20205;-61
2021/03/31 00:21:33;;;;;;;9.10;4.50;;;;;;;;;;5053304;28;20266;-61
2021/03/31 00:24:00;;;;;;;7.90;5.13;;;;;;;;;;5053872;28;20210;-60
2021/03/31 00:26:27;;;;;;;8.93;4.70;;;;;;;;;;5052771;28;20214;-61
2021/03/31 00:28:54;;;;;;;10.10;4.83;;;;;;;;;;5051352;28;20206;-61
2021/03/31 00:31:21;;;;;;;9.13;4.30;;;;;;;;;;5051731;28;20230;-61
2021/03/31 00:33:47;;;;;;;7.93;4.30;;;;;;;;;;5052473;28;20210;-61
2021/03/31 00:36:14;;;;;;;9.70;4.50;;;;;;;;;;5053181;28;20260;-61
2021/03/31 00:38:40;;;;;;;6.30;4.27;;;;;;;;;;5052729;28;20214;-61
2021/03/31 00:41:07;;;;;;;9.20;4.97;;;;;;;;;;5052845;28;20206;-61
2021/03/31 00:43:33;;;;;;;6.80;4.70;;;;;;;;;;5052869;28;20573;-61
2021/03/31 00:46:01;;;;;;;5.40;3.83;;;;;;;;;;5052959;28;20748;-60
2021/03/31 00:48:27;;;;;;;8.50;4.13;;;;;;;;;;5052676;28;20744;-60
2021/03/31 00:50:55;;;;;;;7.13;4.43;;;;;;;;;;5052066;28;20225;-61
2021/03/31 00:53:22;;;;;;;10.33;5.10;;;;;;;;;;5052794;28;20233;-60
2021/03/31 00:55:49;;;;;;;7.90;4.90;;;;;;;;;;5052509;28;20287;-61
2021/03/31 00:58:15;;;;;;;13.80;5.33;;;;;;;;;;5052572;28;20678;-60
2021/03/31 01:00:42;;;;;;;8.23;4.33;;;;;;;;;;5051952;28;20255;-60
2021/03/31 01:03:09;;;;;;;11.47;4.77;;;;;;;;;;5052868;28;20274;-60
2021/03/31 01:05:36;;;;;;;10.87;5.00;;;;;;;;;;5052367;28;20210;-60
2021/03/31 01:08:03;;;;;;;9.97;5.03;;;;;;;;;;5052397;28;20221;-60
2021/03/31 01:10:31;;;;;;;7.10;4.63;;;;;;;;;;5052141;28;20222;-60
2021/03/31 01:13:13;;;;;;;9.03;4.63;;;;;;;;;;5051624;28;20232;-60
2021/03/31 01:15:43;;;;;;;9.47;4.80;;;;;;;;;;5052129;28;20818;-61
2021/03/31 01:18:13;;;;;;;8.83;4.70;;;;;;;;;;5052218;28;20267;-61
2021/03/31 01:21:01;;;;;;;11.57;5.87;;;;;;;;;;5052039;28;20609;-60
2021/03/31 01:23:46;;;;;;;6.13;4.50;;;;;;;;;;5052783;28;20210;-60
2021/03/31 01:26:14;;;;;;;10.17;5.50;;;;;;;;;;5051577;28;20205;-61
2021/03/31 01:29:11;;;;;;;7.67;4.70;;;;;;;;;;5051395;28;20214;-61
2021/03/31 01:31:43;;;;;;;13.73;5.00;;;;;;;;;;5051821;28;20312;-60
2021/03/31 01:34:28;;;;;;;8.03;4.73;;;;;;;;;;5052313;28;20293;-60
2021/03/31 01:36:57;;;;;;;8.37;4.97;;;;;;;;;;5052337;28;20202;-60
2021/03/31 01:39:24;;;;;;;8.57;4.87;;;;;;;;;;5052025;28;20217;-58
2021/03/31 01:41:51;;;;;;;9.40;4.53;;;;;;;;;;5050551;28;20229;-60
2021/03/31 01:44:20;;;;;;;9.43;5.03;;;;;;;;;;5052023;28;20623;-60
2021/03/31 01:46:52;;;;;;;9.40;4.27;;;;;;;;;;5051591;28;20275;-60
2021/03/31 01:49:19;;;;;;;6.50;4.47;;;;;;;;;;5051766;28;20210;-59
2021/03/31 01:51:47;;;;;;;9.67;4.67;;;;;;;;;;5050750;28;20230;-61
2021/03/31 01:54:15;;;;;;;10.03;5.20;;;;;;;;;;5051794;28;20674;-60
2021/03/31 01:56:42;;;;;;;8.07;4.63;;;;;;;;;;5052245;28;20232;-59
2021/03/31 01:59:09;;;;;;;9.83;4.60;;;;;;;;;;5051618;28;20205;-60
2021/03/31 02:01:36;;;;;;;7.80;5.10;;;;;;;;;;5051522;28;20224;-60
2021/03/31 02:04:03;;;;;;;7.87;4.70;;;;;;;;;;5051888;28;20566;-60
2021/03/31 02:06:30;;;;;;;7.60;4.80;;;;;;;;;;5051913;28;20216;-58
2021/03/31 02:08:58;;;;;;;9.17;5.00;;;;;;;;;;5051516;28;20216;-62
2021/03/31 02:11:27;;;;;;;10.63;5.57;;;;;;;;;;5051165;28;20286;-60
2021/03/31 02:13:54;;;;;;;8.83;5.57;;;;;;;;;;5051404;28;20232;-59
2021/03/31 02:16:21;;;;;;;7.03;4.97;;;;;;;;;;5051734;28;20209;-61
2021/03/31 02:18:48;;;;;;;12.97;4.93;;;;;;;;;;5051824;28;20212;-61
2021/03/31 02:21:15;;;;;;;9.80;5.23;;;;;;;;;;5051041;28;20205;-60
2021/03/31 02:23:42;;;;;;;10.13;5.03;;;;;;;;;;5051602;28;20591;-60
2021/03/31 02:26:09;;;;;;;9.50;5.30;;;;;;;;;;5054520;28;20273;-59
2021/03/31 02:28:36;;;;;;;9.57;5.03;;;;;;;;;;5055567;28;20593;-60
2021/03/31 02:31:05;;;;;;;11.40;5.17;;;;;;;;;;5055071;28;20846;-60
2021/03/31 02:33:31;;;;;;;7.00;4.47;;;;;;;;;;5055651;28;20301;-61
2021/03/31 02:35:58;;;;;;;9.10;4.33;;;;;;;;;;5055924;28;20213;-60
2021/03/31 02:38:25;;;;;;;9.23;5.40;;;;;;;;;;5056475;28;20209;-61
2021/03/31 02:40:52;;;;;;;7.13;4.43;;;;;;;;;;5056512;28;20206;-60
2021/03/31 02:43:20;;;;;;;9.53;5.00;;;;;;;;;;5056687;28;20225;-60
2021/03/31 02:45:48;;;;;;;8.20;5.17;;;;;;;;;;5056123;28;20304;-60
2021/03/31 02:48:16;;;;;;;10.13;4.60;;;;;;;;;;5055596;28;20210;-60
2021/03/31 02:50:43;;;;;;;8.60;5.10;;;;;;;;;;5055363;28;20226;-62
2021/03/31 02:53:11;;;;;;;8.80;4.83;;;;;;;;;;5055481;28;20228;-61
2021/03/31 02:55:38;;;;;;;7.17;4.77;;;;;;;;;;5055217;28;20738;-60
2021/03/31 02:58:06;;;;;;;6.50;4.77;;;;;;;;;;5055516;28;20299;-60
2021/03/31 03:00:33;;;;;;;9.17;5.03;;;;;;;;;;5055057;28;20689;-60
2021/03/31 03:03:02;;;;;;;9.17;4.93;;;;;;;;;;5055325;28;20237;-61
2021/03/31 03:05:29;;;;;;;7.70;4.27;;;;;;;;;;5055467;28;20820;-59
2021/03/31 03:07:55;;;;;;;6.97;4.30;;;;;;;;;;5054973;28;20225;-60
2021/03/31 03:10:22;;;;;;;8.67;4.80;;;;;;;;;;5054530;28;20222;-60
2021/03/31 03:12:51;;;;;;;8.50;5.20;;;;;;;;;;5055270;28;20229;-60
2021/03/31 03:15:19;;;;;;;7.07;4.63;;;;;;;;;;5054894;28;20666;-61
2021/03/31 03:17:46;;;;;;;9.43;4.20;;;;;;;;;;5054596;28;20209;-60
2021/03/31 03:20:14;;;;;;;8.27;4.80;;;;;;;;;;5056155;28;20221;-60
2021/03/31 03:22:41;;;;;;;6.73;4.57;;;;;;;;;;5054145;28;20237;-60
2021/03/31 03:25:09;;;;;;;7.57;4.13;;;;;;;;;;5054564;28;20216;-60
2021/03/31 03:27:36;;;;;;;6.20;4.57;;;;;;;;;;5054183;28;20693;-61
2021/03/31 03:30:02;;;;;;;9.50;4.73;;;;;;;;;;5053975;28;20221;-61
2021/03/31 03:32:30;;;;;;;7.13;4.20;;;;;;;;;;5054164;28;20236;-60
2021/03/31 03:34:57;;;;;;;9.00;4.50;;;;;;;;;;5054071;28;20228;-61
2021/03/31 03:37:24;;;;;;;8.87;5.17;;;;;;;;;;5053675;28;20208;-60
2021/03/31 03:39:51;;;;;;;7.10;4.27;;;;;;;;;;5054018;28;20206;-61
2021/03/31 03:42:17;;;;;;;8.13;4.60;;;;;;;;;;5054137;28;20229;-61
2021/03/31 03:44:44;;;;;;;7.90;4.27;;;;;;;;;;5053967;28;20212;-61
2021/03/31 03:47:11;;;;;;;8.17;4.80;;;;;;;;;;5054029;28;20205;-61
2021/03/31 03:49:38;;;;;;;9.03;4.13;;;;;;;;;;5053318;28;20264;-61
2021/03/31 03:52:05;;;;;;;11.50;4.53;;;;;;;;;;5054032;28;20226;-61
2021/03/31 03:54:32;;;;;;;6.93;3.73;;;;;;;;;;5054222;28;20353;-60
2021/03/31 03:56:59;;;;;;;7.13;4.60;;;;;;;;;;5054135;28;20205;-61
2021/03/31 03:59:28;;;;;;;8.83;4.20;;;;;;;;;;5054442;28;20242;-59
2021/03/31 04:01:55;;;;;;;8.03;4.20;;;;;;;;;;5053709;28;20727;-60
2021/03/31 04:04:22;;;;;;;11.07;4.20;;;;;;;;;;5053829;28;20678;-60
2021/03/31 04:06:48;;;;;;;7.27;4.13;;;;;;;;;;5053717;28;20259;-60
2021/03/31 04:09:15;;;;;;;9.27;4.20;;;;;;;;;;5053730;28;20209;-60
2021/03/31 04:11:43;;;;;;;10.03;4.80;;;;;;;;;;5052890;28;20730;-59
2021/03/31 04:14:11;;;;;;;9.33;4.60;;;;;;;;;;5053413;28;20686;-61
2021/03/31 04:16:39;;;;;;;10.40;4.20;;;;;;;;;;5051017;28;20215;-60
2021/03/31 04:19:07;;;;;;;7.63;4.57;;;;;;;;;;5053230;28;20206;-60
2021/03/31 04:21:35;;;;;;;8.63;4.60;;;;;;;;;;5053017;28;20218;-60
2021/03/31 04:24:03;;;;;;;8.13;4.93;;;;;;;;;;5053122;28;20232;-60
2021/03/31 04:26:31;;;;;;;9.70;5.37;;;;;;;;;;5053166;28;20201;-60
2021/03/31 04:28:59;;;;;;;9.93;5.30;;;;;;;;;;5052909;28;20212;-59
2021/03/31 04:31:27;;;;;;;9.27;5.30;;;;;;;;;;5052419;28;20240;-59
2021/03/31 04:33:54;;;;;;;8.60;4.90;;;;;;;;;;5052756;28;20225;-60
2021/03/31 04:36:20;;;;;;;9.20;5.03;;;;;;;;;;5052975;28;20212;-60
2021/03/31 04:38:48;;;;;;;10.17;4.93;;;;;;;;;;5052985;28;20206;-59
2021/03/31 04:41:15;;;;;;;7.47;4.80;;;;;;;;;;5051210;28;20223;-60
2021/03/31 04:43:42;;;;;;;7.20;4.63;;;;;;;;;;5052465;28;20206;-59
2021/03/31 04:46:10;;;;;;;8.90;4.67;;;;;;;;;;5067170;28;20584;-60
2021/03/31 04:48:36;;;;;;;9.83;4.90;;;;;;;;;;5072718;28;20207;-59
2021/03/31 04:51:03;;;;;;;8.40;4.87;;;;;;;;;;5071613;28;21005;-57
2021/03/31 04:53:30;;;;;;;8.03;4.77;;;;;;;;;;5072534;28;20201;-59
2021/03/31 04:55:56;;;;;;;8.00;4.33;;;;;;;;;;5072623;28;20220;-59
2021/03/31 04:58:23;;;;;;;9.67;4.77;;;;;;;;;;5072443;28;20200;-60
2021/03/31 05:00:50;;;;;;;9.87;5.17;;;;;;;;;;5072269;28;20658;-61
2021/03/31 05:03:17;;;;;;;14.40;5.20;;;;;;;;;;5072590;28;20289;-59
2021/03/31 05:05:44;;;;;;;9.90;5.07;;;;;;;;;;5072310;28;20215;-59
2021/03/31 05:08:10;;;;;;;9.30;4.87;;;;;;;;;;5072257;28;20205;-60
2021/03/31 05:10:37;;;;;;;9.93;5.27;;;;;;;;;;5071888;28;20801;-59
2021/03/31 05:13:04;;;;;;;12.20;5.37;;;;;;;;;;5072023;28;20228;-59
2021/03/31 05:15:30;;;;;;;8.33;4.73;;;;;;;;;;5072241;28;20208;-59
2021/03/31 05:17:57;;;;;;;8.10;5.13;;;;;;;;;;5072469;28;20204;-59
2021/03/31 05:20:24;;;;;;;8.13;4.93;;;;;;;;;;5071888;28;20200;-59
2021/03/31 05:22:51;;;;;;;11.77;5.10;;;;;;;;;;5071957;28;20274;-58
2021/03/31 05:25:17;;;;;;;9.43;5.00;;;;;;;;;;5072204;28;20205;-59
2021/03/31 05:27:44;;;;;;;8.03;5.13;;;;;;;;;;5072255;28;20576;-56
2021/03/31 05:30:11;;;;;;;8.17;5.23;;;;;;;;;;5073511;28;20235;-59
2021/03/31 05:32:38;;;;;;;11.30;5.40;;;;;;;;;;5071929;28;20709;-59
2021/03/31 05:35:05;;;;;;;10.10;5.13;;;;;;;;;;5072340;28;20223;-58
2021/03/31 05:37:33;;;;;;;8.60;4.93;;;;;;;;;;5071629;28;20215;-66
2021/03/31 05:39:59;;;;;;;10.67;5.13;;;;;;;;;;5071452;28;20216;-66
2021/03/31 05:42:26;;;;;;;7.93;4.80;;;;;;;;;;5071779;28;20302;-66
2021/03/31 05:44:53;;;;;;;10.07;5.27;;;;;;;;;;5072171;28;20209;-66
2021/03/31 05:47:24;;;;;;;8.97;4.60;;;;;;;;;;5054481;28;20209;-66
2021/03/31 05:49:51;;;;;;;7.83;5.10;;;;;;;;;;5051456;28;20205;-66
2021/03/31 05:52:18;;;;;;;8.37;4.93;;;;;;;;;;5051569;28;20236;-65
2021/03/31 05:54:45;;;;;;;12.50;5.73;;;;;;;;;;5046366;28;20206;-64
2021/03/31 05:57:12;;;;;;;12.40;5.37;;;;;;;;;;5051450;28;20202;-64
2021/03/31 05:59:39;;;;;;;9.03;5.30;;;;;;;;;;5050464;28;20562;-64
2021/03/31 06:02:06;;;;;;;9.10;5.23;;;;;;;;;;5051308;28;20226;-65
2021/03/31 06:04:33;;;;;;;8.60;5.03;;;;;;;;;;5051048;28;20635;-64
2021/03/31 06:06:59;;;;;;;8.83;5.23;;;;;;;;;;5051116;28;20206;-65
2021/03/31 06:09:26;;;;;;;8.93;5.40;;;;;;;;;;5051396;28;20209;-63
2021/03/31 06:11:57;;;;;;;11.93;5.93;;;;;;;;;;5050607;28;20241;-65
2021/03/31 06:14:31;;;;;;;10.53;6.07;;;;;;;;;;5051145;28;20201;-66
2021/03/31 06:17:09;;;;;;;9.50;5.60;;;;;;;;;;5050928;28;20686;-65
2021/03/31 06:19:38;;;;;;;11.27;5.43;;;;;;;;;;5051043;28;20209;-66
2021/03/31 06:22:11;;;;;;;11.67;5.50;;;;;;;;;;5050881;28;20222;-66
2021/03/31 06:24:44;;;;;;;9.33;5.57;;;;;;;;;;5050858;28;20305;-65
2021/03/31 06:27:12;;;;;;;10.50;5.70;;;;;;;;;;5051103;28;20267;-65
2021/03/31 06:29:43;;;;;;;12.13;5.80;;;;;;;;;;5051057;28;20214;-65
2021/03/31 06:32:17;;;;;;;8.77;5.43;;;;;;;;;;5050553;28;20234;-65
2021/03/31 06:34:54;;;;;;;10.20;6.27;;;;;;;;;;5050434;28;20216;-65
2021/03/31 06:37:26;;;;;;;11.73;5.60;;;;;;;;;;5051027;28;20205;-66
2021/03/31 06:39:53;;;;;;;9.63;5.77;;;;;;;;;;5050538;28;20245;-66
2021/03/31 06:42:22;;;;;;;9.90;6.23;;;;;;;;;;5050772;28;20352;-66
2021/03/31 06:44:57;;;;;;;8.37;5.70;;;;;;;;;;5050228;28;20356;-65
2021/03/31 06:47:27;;;;;;;9.70;5.70;;;;;;;;;;5050443;28;20219;-62
2021/03/31 06:49:54;;;;;;;9.87;5.77;;;;;;;;;;5050468;28;20212;-62
2021/03/31 06:52:21;;;;;;;10.13;6.03;;;;;;;;;;5050285;28;20242;-62
2021/03/31 06:54:49;;;;;;;13.20;5.70;;;;;;;;;;5050473;28;20219;-61
2021/03/31 06:57:23;;;;;;;10.50;6.50;;;;;;;;;;5050483;28;20631;-61
2021/03/31 06:59:57;;;;;;;11.30;5.70;;;;;;;;;;5050518;28;20208;-65
2021/03/31 07:02:24;;;;;;;12.23;5.83;;;;;;;;;;5050965;28;20613;-64
2021/03/31 07:04:53;;;;;;;12.90;5.90;;;;;;;;;;5050376;28;20221;-61
2021/03/31 07:07:19;;;;;;;15.80;6.30;;;;;;;;;;5050596;28;20266;-62
2021/03/31 07:09:46;;;;;;;12.40;6.20;;;;;;;;;;5050156;28;20216;-62
2021/03/31 07:12:19;;;;;;;10.80;6.57;;;;;;;;;;5051869;28;20613;-61
2021/03/31 07:14:47;;;;;;;11.03;6.47;;;;;;;;;;5054079;28;20270;-61
2021/03/31 07:17:21;;;;;;;10.43;6.40;;;;;;;;;;5054115;28;20204;-61
2021/03/31 07:19:48;;;;;;;14.27;6.60;;;;;;;;;;5053780;28;20217;-61
2021/03/31 07:22:14;;;;;;;11.80;6.53;;;;;;;;;;5053725;28;20232;-60
2021/03/31 07:24:41;;;;;;;8.90;6.03;;;;;;;;;;5054298;28;20209;-62
2021/03/31 07:27:08;;;;;;;14.10;6.83;;;;;;;;;;5054024;28;20209;-63
2021/03/31 07:29:37;;;;;;;11.40;6.13;;;;;;;;;;5053792;28;20213;-62
2021/03/31 07:32:04;;;;;;;10.97;5.37;;;;;;;;;;5053759;28;20232;-61
2021/03/31 07:34:32;;;;;;;11.50;6.10;;;;;;;;;;5053202;28;20263;-59
2021/03/31 07:36:59;;;;;;;11.27;6.23;;;;;;;;;;5054061;28;20263;-62
2021/03/31 07:39:28;;;;;;;9.00;5.63;;;;;;;;;;5053618;28;20214;-62
2021/03/31 07:41:55;;;;;;;10.87;5.77;;;;;;;;;;5053441;28;20226;-62
2021/03/31 07:44:24;;;;;;;9.53;5.80;;;;;;;;;;5053353;28;20674;-61
2021/03/31 07:46:52;;;;;;;11.50;6.07;;;;;;;;;;5053678;28;20201;-61
2021/03/31 07:49:19;;;;;;;8.23;5.83;;;;;;;;;;5053152;28;20206;-61
2021/03/31 07:51:56;;;;;;;11.63;6.00;;;;;;;;;;5053355;28;20229;-61
2021/03/31 07:54:23;;;;;;;11.83;5.77;;;;;;;;;;5053159;28;20690;-60
2021/03/31 07:56:49;;;;;;;10.63;5.67;;;;;;;;;;5053312;28;20209;-60
2021/03/31 07:59:18;;;;;;;11.57;6.67;;;;;;;;;;5053894;28;20407;-64
2021/03/31 08:01:46;;;;;;;7.13;5.33;;;;;;;;;;5053217;28;20264;-64
2021/03/31 08:04:14;;;;;;;11.93;6.07;;;;;;;;;;5053516;28;20577;-63
2021/03/31 08:06:41;;;;;;;12.07;6.37;;;;;;;;;;5054198;28;20697;-60
2021/03/31 08:09:09;;;;;;;10.07;5.13;;;;;;;;;;5054979;28;20209;-64
2021/03/31 08:11:46;;;;;;;9.20;6.00;;;;;;;;;;5054228;28;20227;-67
2021/03/31 08:14:14;;;;;;;10.00;5.67;;;;;;;;;;5052424;28;20267;-66
2021/03/31 08:16:41;;;;;;;9.07;5.47;;;;;;;;;;5053303;28;20212;-67
2021/03/31 08:19:13;;;;;;;8.83;5.90;;;;;;;;;;5053223;28;20202;-67
2021/03/31 08:21:39;;;;;;;12.80;6.30;;;;;;;;;;5052338;28;20217;-68
2021/03/31 08:24:06;;;;;;;10.13;6.07;;;;;;;;;;5052416;28;20209;-67
2021/03/31 08:26:35;;;;;;;10.57;6.60;;;;;;;;;;5052552;28;20259;-65
2021/03/31 08:29:03;;;;;;;10.07;5.70;;;;;;;;;;5052572;28;20213;-65
2021/03/31 08:31:30;;;;;;;10.57;6.07;;;;;;;;;;5052055;28;20229;-65
2021/03/31 08:33:57;;;;;;;13.10;6.00;;;;;;;;;;5052232;28;20594;-65
2021/03/31 08:36:23;;;;;;;9.10;5.53;;;;;;;;;;5052738;28;20236;-65
2021/03/31 08:38:51;;;;;;;9.50;5.50;;;;;;;;;;5052561;28;20205;-63
2021/03/31 08:41:18;;;;;;;12.93;5.97;;;;;;;;;;5052122;28;20566;-65
2021/03/31 08:43:47;;;;;;;13.00;6.00;;;;;;;;;;5052263;28;20210;-64
2021/03/31 08:46:14;;;;;;;11.10;6.10;;;;;;;;;;5052452;28;20209;-65
2021/03/31 08:48:41;;;;;;;8.77;5.20;;;;;;;;;;5052137;28;20209;-63
2021/03/31 08:51:09;;;;;;;9.97;5.57;;;;;;;;;;5051268;28;20226;-64
2021/03/31 08:53:36;;;;;;;9.43;6.00;;;;;;;;;;5052058;28;20212;-63
2021/03/31 08:56:03;;;;;;;10.47;5.77;;;;;;;;;;5051839;28;20236;-64
2021/03/31 08:58:30;;;;;;;10.33;6.07;;;;;;;;;;5052231;28;20666;-65
2021/03/31 09:00:59;;;;;;;11.10;5.93;;;;;;;;;;5051812;28;20206;-65
2021/03/31 09:03:29;;;;;;;11.00;5.97;;;;;;;;;;5051856;28;20267;-65
2021/03/31 09:05:57;;;;;;;7.60;5.63;;;;;;;;;;5051981;28;20206;-65
2021/03/31 09:08:24;;;;;;;14.93;6.20;;;;;;;;;;5051691;28;20588;-64
2021/03/31 09:10:52;;;;;;;10.43;6.10;;;;;;;;;;5051305;28;20851;-64
2021/03/31 09:13:23;;;;;;;10.10;5.53;;;;;;;;;;5051563;28;20233;-65
2021/03/31 09:15:53;;;;;;;9.03;4.80;;;;;;;;;;5051607;28;20206;-65
2021/03/31 09:18:20;;;;;;;13.70;5.70;;;;;;;;;;5051729;28;20675;-67
2021/03/31 09:20:47;;;;;;;9.10;5.80;;;;;;;;;;5050875;28;20210;-67
2021/03/31 09:23:19;;;;;;;9.03;5.30;;;;;;;;;;5051768;28;20229;-64
2021/03/31 09:25:53;;;;;;;9.63;5.57;;;;;;;;;;5051039;28;20686;-66
2021/03/31 09:28:19;;;;;;;11.13;4.80;;;;;;;;;;5051475;28;20666;-66
2021/03/31 09:30:46;;;;;;;8.67;5.17;;;;;;;;;;5050984;28;20233;-65
2021/03/31 09:33:15;;;;;;;9.03;5.37;;;;;;;;;;5051322;28;20237;-64
2021/03/31 09:35:42;;;;;;;10.27;4.57;;;;;;;;;;5050321;28;20222;-64
2021/03/31 09:38:09;;;;;;;9.13;5.07;;;;;;;;;;5051778;28;20201;-64
2021/03/31 09:40:36;;;;;;;8.77;5.50;;;;;;;;;;5050984;28;20210;-65
2021/03/31 09:43:04;;;;;;;10.60;4.77;;;;;;;;;;5051536;28;20222;-64
2021/03/31 09:45:31;;;;;;;8.67;4.90;;;;;;;;;;5051053;28;20217;-66
2021/03/31 09:47:58;;;;;;;9.23;5.07;;;;;;;;;;5051412;28;20209;-65
2021/03/31 09:50:26;;;;;;;8.97;4.50;;;;;;;;;;5051240;28;20205;-66
2021/03/31 09:52:55;;;;;;;7.20;4.17;;;;;;;;;;5051287;28;20226;-66
2021/03/31 09:55:22;;;;;;;9.37;4.63;;;;;;;;;;5050896;28;20247;-63
2021/03/31 09:57:50;;;;;;;12.00;4.93;;;;;;;;;;5051328;28;20205;-64
2021/03/31 10:00:18;;;;;;;6.53;4.43;;;;;;;;;;5050178;28;20213;-65
2021/03/31 10:02:45;;;;;;;10.17;5.47;;;;;;;;;;5051854;28;20226;-67
2021/03/31 10:05:18;;;;;;;8.67;5.07;;;;;;;;;;5051563;28;20248;-66
2021/03/31 10:07:55;;;;;;;10.00;4.97;;;;;;;;;;5051007;28;20209;-63
2021/03/31 10:10:38;;;;;;;12.57;4.97;;;;;;;;;;5050926;28;20255;-65
2021/03/31 10:13:05;;;;;;;8.57;4.83;;;;;;;;;;5050722;28;20221;-65
2021/03/31 10:15:32;;;;;;;8.93;4.53;;;;;;;;;;5050576;28;20210;-65
2021/03/31 10:17:58;;;;;;;7.70;4.37;;;;;;;;;;5050712;28;20210;-64
2021/03/31 10:20:30;;;;;;;12.07;4.63;;;;;;;;;;5050758;28;20209;-67
2021/03/31 10:23:21;;;;;;;7.97;4.60;;;;;;;;;;5050701;28;20733;-66
2021/03/31 10:25:47;;;;;;;9.63;4.13;;;;;;;;;;5050996;28;20205;-66
2021/03/31 10:28:29;;;;;;;8.17;4.30;;;;;;;;;;5051030;28;20209;-65
2021/03/31 10:30:55;;;;;;;9.93;4.33;;;;;;;;;;5050358;28;20247;-66
2021/03/31 10:33:22;;;;;;;6.47;4.30;;;;;;;;;;5050829;28;20225;-65
2021/03/31 10:35:51;;;;;;;6.70;4.10;;;;;;;;;;5050309;28;20217;-65
2021/03/31 10:38:28;;;;;;;9.37;3.87;;;;;;;;;;5050983;28;20216;-66
2021/03/31 10:47:00;;;;;;;7.67;4.00;;;;;;;;;;5052806;28;20200;-64
2021/03/31 10:49:35;;;;;;;9.20;4.00;;;;;;;;;;5054894;28;20213;-65
2021/03/31 10:52:03;;;;;;;7.50;3.67;;;;;;;;;;5054178;28;20229;-60
2021/03/31 10:54:31;;;;;;;10.27;4.20;;;;;;;;;;5053868;28;20209;-60
2021/03/31 10:57:06;;;;;;;6.77;3.90;;;;;;;;;;5054331;28;20210;-66
2021/03/31 10:59:33;;;;;;;9.70;4.00;;;;;;;;;;5054533;28;20213;-66
2021/03/31 11:01:59;;;;;;;8.73;4.10;;;;;;;;;;5054319;28;20218;-67
2021/03/31 11:04:26;;;;;;;7.17;4.03;;;;;;;;;;5054735;28;20237;-68
2021/03/31 11:06:53;;;;;;;6.53;3.93;;;;;;;;;;5054936;28;20206;-68
2021/03/31 11:09:19;;;;;;;6.93;4.00;;;;;;;;;;5055208;28;20202;-65
2021/03/31 11:11:47;;;;;;;7.90;3.73;;;;;;;;;;5053994;28;20714;-65
2021/03/31 11:14:13;;;;;;;8.23;3.90;;;;;;;;;;5054451;28;20231;-65
2021/03/31 11:16:43;;;;;;;11.13;4.63;;;;;;;;;;5054140;28;20235;-66
2021/03/31 11:19:20;;;;;;;8.37;4.20;;;;;;;;;;5054360;28;20616;-65
2021/03/31 11:25:32;;;;;;;9.87;4.83;;;;;;;;;;5053473;28;20275;-65
2021/03/31 11:27:38;;;;;;;7.90;3.90;;;;;;;;;;5073728;28;20273;-67
2021/03/31 11:30:07;;;;;;;7.80;4.07;;;;;;;;;;5073547;28;20212;-64
2021/03/31 11:32:34;;;;;;;7.80;3.80;;;;;;;;;;5073696;28;20694;-65
2021/03/31 11:35:00;;;;;;;6.13;3.27;;;;;;;;;;5073634;28;20216;-63
2021/03/31 11:37:27;;;;;;;5.83;3.60;;;;;;;;;;5074094;28;20213;-63
2021/03/31 11:39:53;;;;;;;9.70;3.90;;;;;;;;;;5073629;28;20255;-63
2021/03/31 11:42:20;;;;;;;9.70;3.30;;;;;;;;;;5073178;28;20220;-64
2021/03/31 11:44:47;;;;;;;7.47;3.10;;;;;;;;;;5073065;28;20677;-65
2021/03/31 11:47:14;;;;;;;5.33;3.30;;;;;;;;;;5073308;28;20673;-67
2021/03/31 11:49:41;;;;;;;7.37;3.40;;;;;;;;;;5073718;28;20273;-67
2021/03/31 11:52:07;;;;;;;4.73;3.10;;;;;;;;;;5072874;28;20232;-66
2021/03/31 11:54:34;;;;;;;8.40;3.30;;;;;;;;;;5073225;28;20292;-65
2021/03/31 11:57:00;;;;;;;4.37;3.00;;;;;;;;;;5072778;28;20208;-66
2021/03/31 11:59:27;;;;;;;6.17;3.27;;;;;;;;;;5072865;28;20205;-67
2021/03/31 12:01:55;;;;;;;4.20;2.90;;;;;;;;;;5073088;28;20221;-66
2021/03/31 12:04:22;;;;;;;5.67;3.03;;;;;;;;;;5073348;28;20212;-66
2021/03/31 12:06:49;;;;;;;6.20;3.67;;;;;;;;;;5073160;28;20320;-66
2021/03/31 12:09:16;;;;;;;6.40;3.53;;;;;;;;;;5073191;28;20204;-65
2021/03/31 12:11:42;;;;;;;4.97;2.93;;;;;;;;;;5072662;28;20247;-68
2021/03/31 12:14:09;;;;;;;5.67;2.77;;;;;;;;;;5073156;28;20692;-67
2021/03/31 12:16:35;;;;;;;7.43;3.20;;;;;;;;;;5073247;28;20201;-66
2021/03/31 12:19:02;;;;;;;4.77;3.07;;;;;;;;;;5073624;28;20205;-65
2021/03/31 12:21:29;;;;;;;5.00;3.00;;;;;;;;;;5072780;28;20248;-65
2021/03/31 12:23:56;;;;;;;3.73;2.60;;;;;;;;;;5073026;28;20228;-65
2021/03/31 12:26:22;;;;;;;8.83;3.30;;;;;;;;;;5072605;28;20239;-66
2021/03/31 12:28:51;;;;;;;5.87;2.97;;;;;;;;;;5072894;28;20216;-64
2021/03/31 12:31:17;;;;;;;4.93;2.57;;;;;;;;;;5072574;28;20225;-65
2021/03/31 12:33:44;;;;;;;5.40;2.30;;;;;;;;;;5072646;28;20216;-66
2021/03/31 12:36:11;;;;;;;4.97;2.70;;;;;;;;;;5072997;28;20201;-66
2021/03/31 12:38:38;;;;;;;4.70;2.97;;;;;;;;;;5072487;28;20262;-66
2021/03/31 12:41:04;;;;;;;7.70;3.23;;;;;;;;;;5072057;28;20209;-66
2021/03/31 12:43:31;;;;;;;5.97;3.20;;;;;;;;;;5072524;28;20213;-66
2021/03/31 12:45:58;;;;;;;8.40;3.40;;;;;;;;;;5072474;28;20213;-66
2021/03/31 12:48:25;;;;;;;5.80;3.00;;;;;;;;;;5072598;28;20236;-66
2021/03/31 12:50:56;;;;;;;4.47;2.50;;;;;;;;;;5071822;28;20266;-66
2021/03/31 12:53:26;;;;;;;3.93;2.47;;;;;;;;;;5071850;28;20267;-69
2021/03/31 12:55:54;;;;;;;6.53;2.80;;;;;;;;;;5072129;28;20819;-65
2021/03/31 12:58:22;;;;;;;5.13;2.63;;;;;;;;;;5072291;28;20205;-67
2021/03/31 13:00:50;;;;;;;7.20;2.57;;;;;;;;;;5071807;28;20697;-67
2021/03/31 13:03:17;;;;;;;4.30;2.30;;;;;;;;;;5072030;28;20220;-66
2021/03/31 13:05:43;;;;;;;5.37;2.73;;;;;;;;;;5072145;28;20204;-66
2021/03/31 13:08:14;;;;;;;8.63;3.30;;;;;;;;;;5071875;28;20211;-66
2021/03/31 13:10:44;;;;;;;7.60;2.93;;;;;;;;;;5071531;28;20216;-65
2021/03/31 13:13:14;;;;;;;5.37;2.90;;;;;;;;;;5071421;28;20713;-66
2021/03/31 13:15:43;;;;;;;7.33;2.40;;;;;;;;;;5071864;28;20212;-67
2021/03/31 13:22:00;;;;;;;7.30;2.37;;;;;;;;;;5071986;28;20224;-67
2021/03/31 13:26:52;;;;;;;5.53;2.10;;;;;;;;;;5062993;28;20669;-66
2021/03/31 13:29:32;;;;;;;6.30;2.33;;;;;;;;;;5071742;28;20295;-68
2021/03/31 13:32:01;;;;;;;8.03;2.60;;;;;;;;;;5071384;28;20236;-68
2021/03/31 13:34:29;;;;;;;6.47;2.30;;;;;;;;;;5071380;28;20315;-67
2021/03/31 13:37:00;;;;;;;5.80;2.40;;;;;;;;;;5071730;28;20208;-67
2021/03/31 13:39:30;;;;;;;9.10;2.43;;;;;;;;;;5071620;28;20209;-68
2021/03/31 13:41:57;;;;;;;4.40;2.13;;;;;;;;;;5071260;28;20647;-67
2021/03/31 13:44:25;;;;;;;5.67;2.37;;;;;;;;;;5071636;28;20209;-67
2021/03/31 13:46:53;;;;;;;5.70;2.30;;;;;;;;;;5072081;28;20205;-66
2021/03/31 13:49:28;;;;;;;3.57;2.10;;;;;;;;;;5061536;28;20209;-67
2021/03/31 13:52:00;;;;;;;15.23;2.97;;;;;;;;;;5051173;28;20225;-64
2021/03/31 13:54:28;;;;;;;7.67;2.40;;;;;;;;;;5051238;28;20214;-64
2021/03/31 13:56:54;;;;;;;5.60;2.20;;;;;;;;;;5051742;28;20218;-65
2021/03/31 13:59:27;;;;;;;7.13;2.33;;;;;;;;;;5051804;28;20230;-65
2021/03/31 14:01:54;;;;;;;4.00;2.33;;;;;;;;;;5057638;28;20222;-65
2021/03/31 14:04:20;;;;;;;6.27;2.00;;;;;;;;;;5057670;28;20205;-65
2021/03/31 14:06:47;;;;;;;5.60;2.20;;;;;;;;;;5053081;28;20576;-65
2021/03/31 14:09:13;;;;;;;6.93;2.20;;;;;;;;;;5054416;28;20217;-66
2021/03/31 14:11:42;;;;;;;5.27;2.20;;;;;;;;;;5059802;28;20225;-66
2021/03/31 14:14:08;;;;;;;7.57;2.20;;;;;;;;;;5061116;28;20273;-65
2021/03/31 14:16:36;;;;;;;6.67;2.00;;;;;;;;;;5055417;28;20205;-65
2021/03/31 14:19:04;;;;;;;6.73;2.00;;;;;;;;;;5051334;28;20205;-65
2021/03/31 14:21:31;;;;;;;8.87;2.30;;;;;;;;;;5053123;28;20225;-65
2021/03/31 14:23:57;;;;;;;6.00;2.10;;;;;;;;;;5055448;28;20201;-65
2021/03/31 14:26:24;;;;;;;7.23;2.30;;;;;;;;;;5054514;28;20591;-65
2021/03/31 14:28:50;;;;;;;10.53;2.70;;;;;;;;;;5056050;28;20209;-62
2021/03/31 14:31:17;;;;;;;5.80;2.10;;;;;;;;;;5055328;28;20225;-62
2021/03/31 14:33:44;;;;;;;4.17;2.37;;;;;;;;;;5056220;28;20275;-67
2021/03/31 14:36:11;;;;;;;4.97;2.40;;;;;;;;;;5056115;28;20229;-61
2021/03/31 14:38:37;;;;;;;7.83;2.30;;;;;;;;;;5055957;28;20289;-62
2021/03/31 14:41:04;;;;;;;9.77;2.20;;;;;;;;;;5055469;28;20740;-62
2021/03/31 14:43:30;;;;;;;7.83;2.63;;;;;;;;;;5055723;28;20602;-62
2021/03/31 14:45:57;;;;;;;5.80;2.60;;;;;;;;;;5055133;28;20209;-62
2021/03/31 14:48:23;;;;;;;7.83;3.00;;;;;;;;;;5055857;28;20213;-61
2021/03/31 14:50:51;;;;;;;7.30;2.47;;;;;;;;;;5056159;28;20213;-62
2021/03/31 15:01:42;;;;;;;8.37;3.23;;;;;;;;;;5049807;28;20328;-62
2021/03/31 15:04:09;;;;;;;4.47;2.60;;;;;;;;;;5055228;28;20210;-62
2021/03/31 15:06:36;;;;;;;7.20;2.90;;;;;;;;;;5055462;28;20213;-62
2021/03/31 15:09:03;;;;;;;7.97;2.70;;;;;;;;;;5055201;28;20205;-62
2021/03/31 15:11:29;;;;;;;7.03;3.00;;;;;;;;;;5054538;28;20698;-62